»·PEaware :: N210JV KBFL-KSMX

N210JV :: KBFL-KSMX

FLIGHT INFORMATION

Flight Status: Arrived
Operator: Privately registered:
United States
More flights under this callsign
Pilot: Justin V. (22880)
Aircraft: CESSNA T210 TURBO CENTURION
(T210)
More flights by this aircraft type
Origin: KBFL Meadows
United States
Destination: KSMX Santa Maria Pub/Capt Hancock
United States
More flights between these airports :: More routes between these airports
Route: +VFR DIR
File this flight plan on PilotEdge
Remarks: VFR, REQ ADVISORIES
Altitude:
(Current/Filed)
6,500ft
Speed:
(Current/Filed)
150kts
Departed: 12-Jan-19 04:17 PM
Arrived: 12-Jan-19 04:54 PM
Distance/Time
Traveled:
75nm/0:37
Distance/Time
To Go:
Arrived

Flight Plot

Page will automatically refresh every two minutes.

Flight plan parsing failed; only flown route is shown


Map Options




Map Legend


Flown Route
Filed Route
Departure Airport
Arrival Airport
Navaid (VOR, NDB)
Fix

Horizontal Profiles

Position Reports

Time Latitude Longitude Heading Altitude Ground
Speed
12-Jan-19 15:55 35.435705 -119.052043 179 510ft 0kts
12-Jan-19 15:56 35.435705 -119.052043 179 510ft 0kts
12-Jan-19 15:57 35.435705 -119.052043 179 510ft 0kts
12-Jan-19 15:58 35.435705 -119.052043 179 510ft 0kts
12-Jan-19 15:59 35.435702 -119.052043 179 510ft 0kts
12-Jan-19 16:00 35.435702 -119.052043 179 510ft 0kts
12-Jan-19 16:01 35.435702 -119.052043 179 510ft 0kts
12-Jan-19 16:02 35.435702 -119.052043 179 510ft 0kts
12-Jan-19 16:03 35.435702 -119.052043 179 510ft 0kts
12-Jan-19 16:04 35.435702 -119.052043 179 510ft 0kts
12-Jan-19 16:05 35.435702 -119.052043 179 510ft 0kts
12-Jan-19 16:06 35.435702 -119.052043 179 510ft 0kts
12-Jan-19 16:07 35.435702 -119.052043 180 510ft 0kts
12-Jan-19 16:08 35.435485 -119.053133 263 510ft 8kts
12-Jan-19 16:09 35.434755 -119.054263 225 510ft 0kts
12-Jan-19 16:10 35.434681 -119.054358 226 510ft 6kts
12-Jan-19 16:11 35.438032 -119.059035 319 510ft 17kts
12-Jan-19 16:12 35.441251 -119.062892 312 510ft 21kts
12-Jan-19 16:13 35.444093 -119.066345 311 510ft 20kts
12-Jan-19 16:14 35.447016 -119.070307 246 510ft 9kts
12-Jan-19 16:15 35.446779 -119.070571 218 510ft 4kts
12-Jan-19 16:16 35.442705 -119.066910 134 518ft 74kts
12-Jan-19 16:17 35.424992 -119.047477 167 1286ft 101kts
12-Jan-19 16:18 35.404531 -119.079180 246 1978ft 144kts
12-Jan-19 16:19 35.391608 -119.126891 251 2754ft 151kts
12-Jan-19 16:20 35.375679 -119.170579 239 3855ft 141kts
12-Jan-19 16:21 35.358507 -119.211168 246 4591ft 128kts
12-Jan-19 16:22 35.345568 -119.251537 248 4909ft 123kts
12-Jan-19 16:23 35.335086 -119.287994 247 5478ft 103kts
12-Jan-19 16:24 35.326170 -119.322782 264 6086ft 112kts
12-Jan-19 16:25 35.322032 -119.362493 260 6491ft 135kts
12-Jan-19 16:26 35.314899 -119.410401 256 6578ft 152kts
12-Jan-19 16:27 35.303761 -119.462430 250 6546ft 161kts
12-Jan-19 16:28 35.288757 -119.514973 249 6478ft 164kts
12-Jan-19 16:29 35.274096 -119.567458 244 6526ft 163kts
12-Jan-19 16:30 35.255321 -119.617998 242 6568ft 163kts
12-Jan-19 16:31 35.231577 -119.665714 235 6566ft 164kts
12-Jan-19 16:32 35.206929 -119.713132 235 6568ft 168kts
12-Jan-19 16:33 35.181556 -119.761559 235 6566ft 169kts
12-Jan-19 16:34 35.156199 -119.809487 235 6566ft 167kts
12-Jan-19 16:35 35.131628 -119.857827 244 6568ft 168kts
12-Jan-19 16:36 35.116430 -119.912810 246 6499ft 172kts
12-Jan-19 16:37 35.096989 -119.965220 242 6497ft 168kts
12-Jan-19 16:38 35.077108 -120.015520 241 6498ft 167kts
12-Jan-19 16:39 35.056859 -120.066379 241 6499ft 166kts
12-Jan-19 16:40 35.036471 -120.117432 241 6498ft 167kts
12-Jan-19 16:41 35.016704 -120.167139 241 6307ft 158kts
12-Jan-19 16:42 34.997828 -120.214451 241 5525ft 149kts
12-Jan-19 16:43 34.978527 -120.262473 242 5046ft 168kts
12-Jan-19 16:44 34.958918 -120.311771 242 4045ft 154kts
12-Jan-19 16:45 34.940677 -120.357746 242 3052ft 145kts
12-Jan-19 16:46 34.920228 -120.397773 218 2113ft 131kts
12-Jan-19 16:47 34.893024 -120.420665 206 1668ft 92kts
12-Jan-19 16:48 34.888796 -120.441052 306 1076ft 76kts
12-Jan-19 16:49 34.906033 -120.461834 308 1170ft 98kts
12-Jan-19 16:50 34.897856 -120.479270 129 1290ft 104kts
12-Jan-19 16:51 34.882777 -120.453769 128 1081ft 87kts
12-Jan-19 16:53 34.891904 -120.444752 310 348ft 67kts
12-Jan-19 16:54 34.899364 -120.453620 356 265ft 12kts
12-Jan-19 16:55 34.900941 -120.453347 73 265ft 11kts
12-Jan-19 16:56 34.898647 -120.450371 135 264ft 11kts
12-Jan-19 16:57 34.896928 -120.447438 43 265ft 13kts
12-Jan-19 16:58 34.896631 -120.445588 133 265ft 0kts
12-Jan-19 16:59 34.896632 -120.445588 133 265ft 0kts
12-Jan-19 17:00 34.896632 -120.445588 133 265ft 0kts
12-Jan-19 17:01 34.896632 -120.445588 133 265ft 0kts
12-Jan-19 17:02 34.896632 -120.445588 133 265ft 0kts
12-Jan-19 17:03 34.896632 -120.445588 133 265ft 0kts
12-Jan-19 17:04 34.896632 -120.445588 133 265ft 0kts

Navigation Log

Ident Type
Flight plan parsing failed, navigation log unavailable